| time (UTC) | temp F | wind direction | speed MPH | gust MPH | rain 1hr in | rain 24hr in | rain mn in | humidity % | barometer mb |
| 20260508033302 | 59 | 243 | 1.0 | 1.0 | 0.00 | 0.00 | 0.00 | 16 | 1016.4 |
| 20260508032759 | 60 | 301 | 1.0 | 1.0 | 0.00 | 0.00 | 0.00 | 16 | 1016.3 |
| 20260508032256 | 60 | 235 | 2.0 | 2.0 | 0.00 | 0.00 | 0.00 | 15 | 1016.4 |
| 20260508031752 | 61 | 243 | 1.0 | 2.0 | 0.00 | 0.00 | 0.00 | 15 | 1016.1 |
| 20260508031249 | 61 | 226 | 0.0 | 0.0 | 0.00 | 0.00 | 0.00 | 15 | 1016.1 |
| 20260508030745 | 62 | 267 | 2.0 | 3.0 | 0.00 | 0.00 | 0.00 | 14 | 1016.1 |
| 20260508030243 | 62 | 241 | 1.0 | 2.0 | 0.00 | 0.00 | 0.00 | 14 | 1015.9 |
| 20260508025739 | 63 | 244 | 2.0 | 3.0 | 0.00 | 0.00 | 0.00 | 14 | 1015.9 |
| 20260508025236 | 65 | 238 | 1.0 | 2.0 | 0.00 | 0.00 | 0.00 | 14 | 1015.6 |
| 20260508024732 | 67 | 288 | 0.0 | 1.0 | 0.00 | 0.00 | 0.00 | 12 | 1015.7 |
| 20260508024229 | 67 | 284 | 1.0 | 1.0 | 0.00 | 0.00 | 0.00 | 12 | 1015.9 |
| 20260508023726 | 67 | 309 | 1.0 | 2.0 | 0.00 | 0.00 | 0.00 | 11 | 1015.5 |
| 20260508023224 | 67 | 334 | 2.0 | 2.0 | 0.00 | 0.00 | 0.00 | 11 | 1015.3 |
| 20260508022719 | 67 | 280 | 1.0 | 1.0 | 0.00 | 0.00 | 0.00 | 12 | 1015.3 |
| 20260508022216 | 68 | 9 | 1.0 | 1.0 | 0.00 | 0.00 | 0.00 | 13 | 1015.4 |
| 20260508021713 | 68 | 345 | 1.0 | 2.0 | 0.00 | 0.00 | 0.00 | 12 | 1015.0 |
| 20260508021208 | 69 | 313 | 1.0 | 1.0 | 0.00 | 0.00 | 0.00 | 13 | 1015.2 |
| 20260508020706 | 69 | 142 | 0.0 | 0.0 | 0.00 | 0.00 | 0.00 | 14 | 1015.0 |
| 20260508020203 | 70 | 335 | 1.0 | 1.0 | 0.00 | 0.00 | 0.00 | 15 | 1015.3 |
| 20260508015701 | 70 | 201 | 1.0 | 1.0 | 0.00 | 0.00 | 0.00 | 14 | 1015.2 |
| 20260508015157 | 71 | 131 | 0.0 | 0.0 | 0.00 | 0.00 | 0.00 | 14 | 1014.9 |
| 20260508014654 | 71 | 116 | 0.0 | 1.0 | 0.00 | 0.00 | 0.00 | 14 | 1014.8 |
| 20260508014150 | 72 | 112 | 0.0 | 0.0 | 0.00 | 0.00 | 0.00 | 14 | 1014.7 |
| 20260508013646 | 73 | 266 | 1.0 | 1.0 | 0.00 | 0.00 | 0.00 | 13 | 1014.7 |
| 20260508013143 | 74 | 254 | 0.0 | 1.0 | 0.00 | 0.00 | 0.00 | 13 | 1014.7 |
| 20260508012641 | 74 | 197 | 1.0 | 2.0 | 0.00 | 0.00 | 0.00 | 13 | 1014.4 |
| 20260508012138 | 75 | 144 | 2.0 | 2.0 | 0.00 | 0.00 | 0.00 | 13 | 1014.4 |
| 20260508011636 | 76 | 120 | 1.0 | 1.0 | 0.00 | 0.00 | 0.00 | 12 | 1014.8 |
| 20260508011133 | 75 | 234 | 0.0 | 1.0 | 0.00 | 0.00 | 0.00 | 12 | 1014.6 |
| 20260508010630 | 76 | 303 | 1.0 | 1.0 | 0.00 | 0.00 | 0.00 | 13 | 1014.6 |
| 20260508010128 | 77 | 235 | 3.0 | 3.0 | 0.00 | 0.00 | 0.00 | 12 | 1014.7 |
| 20260508005624 | 76 | 189 | 1.0 | 1.0 | 0.00 | 0.00 | 0.00 | 13 | 1014.6 |
| 20260508005121 | 77 | 226 | 1.0 | 1.0 | 0.00 | 0.00 | 0.00 | 12 | 1014.4 |
| 20260508004616 | 77 | 132 | 2.0 | 2.0 | 0.00 | 0.00 | 0.00 | 12 | 1014.9 |
| 20260508004114 | 77 | 28 | 1.0 | 1.0 | 0.00 | 0.00 | 0.00 | 12 | 1014.4 |
| 20260508003610 | 77 | 273 | 2.0 | 3.0 | 0.00 | 0.00 | 0.00 | 12 | 1014.3 |
| 20260508003108 | 77 | 51 | 2.0 | 2.0 | 0.00 | 0.00 | 0.00 | 12 | 1014.7 |
| 20260508002604 | 77 | 204 | 3.0 | 5.0 | 0.00 | 0.00 | 0.00 | 12 | 1014.6 |
| 20260508002102 | 78 | 31 | 2.0 | 3.0 | 0.00 | 0.00 | 0.00 | 12 | 1014.2 |
| 20260508001557 | 77 | 257 | 1.0 | 1.0 | 0.00 | 0.00 | 0.00 | 13 | 1014.7 |
| 20260508001053 | 78 | 235 | 5.0 | 7.0 | 0.00 | 0.00 | 0.00 | 11 | 1014.4 |
| 20260508000549 | 79 | 232 | 2.0 | 2.0 | 0.00 | 0.00 | 0.00 | 11 | 1014.6 |
| 20260508000047 | 78 | 253 | 0.0 | 1.0 | 0.00 | 0.00 | 0.00 | 12 | 1014.4 |
| 20260507235543 | 78 | 252 | 1.0 | 1.0 | 0.00 | 0.00 | 0.00 | 12 | 1014.6 |
| 20260507235041 | 78 | 222 | 4.0 | 7.0 | 0.00 | 0.00 | 0.00 | 12 | 1014.7 |
| 20260507234537 | 78 | 276 | 1.0 | 2.0 | 0.00 | 0.00 | 0.00 | 12 | 1014.8 |
| 20260507234033 | 78 | 181 | 3.0 | 3.0 | 0.00 | 0.00 | 0.00 | 12 | 1014.8 |
| 20260507233530 | 79 | 123 | 1.0 | 2.0 | 0.00 | 0.00 | 0.00 | 12 | 1014.9 |
| 20260507233029 | 79 | 17 | 0.0 | 1.0 | 0.00 | 0.00 | 0.00 | 12 | 1014.8 |
| 20260507232525 | 80 | 174 | 2.0 | 2.0 | 0.00 | 0.00 | 0.00 | 13 | 1015.0 |
| 20260507232022 | 79 | 273 | 1.0 | 2.0 | 0.00 | 0.00 | 0.00 | 12 | 1014.8 |
| 20260507231518 | 78 | 233 | 2.0 | 2.0 | 0.00 | 0.00 | 0.00 | 12 | 1014.7 |
| 20260507231016 | 79 | 279 | 3.0 | 3.0 | 0.00 | 0.00 | 0.00 | 12 | 1015.0 |
| 20260507230513 | 78 | 310 | 4.0 | 5.0 | 0.00 | 0.00 | 0.00 | 11 | 1015.0 |
| 20260507230009 | 79 | 20 | 3.0 | 5.0 | 0.00 | 0.00 | 0.00 | 10 | 1015.4 |
| 20260507225504 | 77 | 236 | 0.0 | 1.0 | 0.00 | 0.00 | 0.00 | 12 | 1015.4 |
| 20260507225000 | 77 | 301 | 1.0 | 1.0 | 0.00 | 0.00 | 0.00 | 12 | 1015.4 |
| 20260507224456 | 80 | 291 | 1.0 | 1.0 | 0.00 | 0.00 | 0.00 | 10 | 1015.3 |
| 20260507223953 | 80 | 247 | 3.0 | 5.0 | 0.00 | 0.00 | 0.00 | 10 | 1015.2 |
| 20260507223449 | 79 | 38 | 0.0 | 0.0 | 0.00 | 0.00 | 0.00 | 12 | 1015.4 |
| 20260507222947 | 80 | 26 | 1.0 | 2.0 | 0.00 | 0.00 | 0.00 | 10 | 1015.6 |
| 20260507222443 | 79 | 187 | 0.0 | 1.0 | 0.00 | 0.00 | 0.00 | 11 | 1015.5 |
| 20260507221940 | 78 | 295 | 3.0 | 5.0 | 0.00 | 0.00 | 0.00 | 10 | 1015.9 |
| 20260507221437 | 76 | 269 | 1.0 | 2.0 | 0.00 | 0.00 | 0.00 | 12 | 1015.7 |
| 20260507220933 | 75 | 138 | 4.0 | 5.0 | 0.00 | 0.00 | 0.00 | 12 | 1015.7 |
| 20260507220431 | 77 | 191 | 1.0 | 2.0 | 0.00 | 0.00 | 0.00 | 13 | 1015.6 |
| 20260507215927 | 76 | 176 | 1.0 | 2.0 | 0.00 | 0.00 | 0.00 | 11 | 1015.9 |
| 20260507215424 | 78 | 125 | 5.0 | 7.0 | 0.00 | 0.00 | 0.00 | 10 | 1015.9 |
| 20260507214921 | 78 | 221 | 3.0 | 7.0 | 0.00 | 0.00 | 0.00 | 11 | 1016.0 |
| 20260507214419 | 77 | 177 | 3.0 | 3.0 | 0.00 | 0.00 | 0.00 | 10 | 1016.0 |
| 20260507213914 | 76 | 26 | 0.0 | 1.0 | 0.00 | 0.00 | 0.00 | 12 | 1016.3 |
| 20260507213411 | 75 | 115 | 2.0 | 2.0 | 0.00 | 0.00 | 0.00 | 12 | 1016.7 |
| 20260507212908 | 75 | 139 | 2.0 | 3.0 | 0.00 | 0.00 | 0.00 | 13 | 1016.6 |
| 20260507212403 | 75 | 95 | 2.0 | 2.0 | 0.00 | 0.00 | 0.00 | 11 | 1016.9 |
| 20260507211900 | 76 | 37 | 2.0 | 2.0 | 0.00 | 0.00 | 0.00 | 11 | 1016.9 |
| 20260507211357 | 75 | 336 | 0.0 | 0.0 | 0.00 | 0.00 | 0.00 | 12 | 1016.8 |
| 20260507210854 | 75 | 66 | 3.0 | 5.0 | 0.00 | 0.00 | 0.00 | 11 | 1017.0 |
| 20260507210351 | 75 | 162 | 3.0 | 5.0 | 0.00 | 0.00 | 0.00 | 12 | 1017.3 |
| 20260507205847 | 73 | 114 | 2.0 | 2.0 | 0.00 | 0.00 | 0.00 | 13 | 1017.0 |
| 20260507205344 | 74 | 100 | 3.0 | 5.0 | 0.00 | 0.00 | 0.00 | 15 | 1017.3 |
| 20260507204840 | 74 | 39 | 5.0 | 7.0 | 0.00 | 0.00 | 0.00 | 15 | 1017.5 |
| 20260507204337 | 73 | 48 | 5.0 | 8.0 | 0.00 | 0.00 | 0.00 | 15 | 1017.6 |
| 20260507203835 | 74 | 7 | 3.0 | 3.0 | 0.00 | 0.00 | 0.00 | 13 | 1017.4 |
| 20260507203333 | 75 | 123 | 1.0 | 2.0 | 0.00 | 0.00 | 0.00 | 12 | 1017.6 |
| 20260507202829 | 75 | 331 | 1.0 | 1.0 | 0.00 | 0.00 | 0.00 | 12 | 1017.7 |
| 20260507202326 | 74 | 313 | 4.0 | 5.0 | 0.00 | 0.00 | 0.00 | 13 | 1018.1 |
| 20260507201821 | 74 | 36 | 1.0 | 1.0 | 0.00 | 0.00 | 0.00 | 13 | 1018.1 |
| 20260507201317 | 74 | 201 | 3.0 | 5.0 | 0.00 | 0.00 | 0.00 | 14 | 1018.2 |
| 20260507200814 | 73 | 223 | 1.0 | 2.0 | 0.00 | 0.00 | 0.00 | 15 | 1018.2 |
| 20260507200309 | 72 | 240 | 1.0 | 1.0 | 0.00 | 0.00 | 0.00 | 17 | 1018.1 |
| 20260507195805 | 72 | 182 | 4.0 | 5.0 | 0.00 | 0.00 | 0.00 | 15 | 1018.2 |
| 20260507195305 | 73 | 343 | 3.0 | 3.0 | 0.00 | 0.00 | 0.00 | 16 | 1018.7 |
| 20260507194800 | 73 | 129 | 3.0 | 3.0 | 0.00 | 0.00 | 0.00 | 17 | 1018.3 |
| 20260507194250 | 71 | 210 | 3.0 | 3.0 | 0.00 | 0.00 | 0.00 | 17 | 1018.4 |
| 20260507193747 | 72 | 102 | 2.0 | 5.0 | 0.00 | 0.00 | 0.00 | 18 | 1018.3 |
| 20260507193244 | 69 | 17 | 3.0 | 3.0 | 0.00 | 0.00 | 0.00 | 19 | 1018.6 |
| 20260507192740 | 71 | 231 | 2.0 | 2.0 | 0.00 | 0.00 | 0.00 | 17 | 1019.0 |
| 20260507192237 | 70 | 6 | 3.0 | 3.0 | 0.00 | 0.00 | 0.00 | 18 | 1019.0 |
| 20260507191733 | 70 | 333 | 1.0 | 2.0 | 0.00 | 0.00 | 0.00 | 22 | 1019.1 |
| 20260507191230 | 68 | 73 | 2.0 | 2.0 | 0.00 | 0.00 | 0.00 | 22 | 1019.1 |
| 20260507190727 | 68 | 167 | 5.0 | 7.0 | 0.00 | 0.00 | 0.00 | 21 | 1019.3 |
| 20260507190225 | 68 | 316 | 1.0 | 1.0 | 0.00 | 0.00 | 0.00 | 24 | 1019.4 |
| 20260507185724 | 67 | 246 | 1.0 | 2.0 | 0.00 | 0.00 | 0.00 | 23 | 1019.7 |
| 20260507185220 | 67 | 42 | 3.0 | 3.0 | 0.00 | 0.00 | 0.00 | 22 | 1019.5 |
| 20260507184718 | 68 | 82 | 3.0 | 7.0 | 0.00 | 0.00 | 0.00 | 23 | 1019.6 |
| 20260507184215 | 68 | 89 | 2.0 | 2.0 | 0.00 | 0.00 | 0.00 | 22 | 1019.8 |
| 20260507183712 | 68 | 311 | 2.0 | 2.0 | 0.00 | 0.00 | 0.00 | 23 | 1019.8 |
| 20260507183209 | 67 | 197 | 2.0 | 3.0 | 0.00 | 0.00 | 0.00 | 23 | 1020.2 |
| 20260507182706 | 67 | 275 | 1.0 | 2.0 | 0.00 | 0.00 | 0.00 | 24 | 1020.2 |
| 20260507182201 | 66 | 357 | 0.0 | 0.0 | 0.00 | 0.00 | 0.00 | 25 | 1020.3 |
| 20260507181658 | 66 | 73 | 3.0 | 3.0 | 0.00 | 0.00 | 0.00 | 24 | 1020.2 |
| 20260507181154 | 65 | 49 | 3.0 | 3.0 | 0.00 | 0.00 | 0.00 | 24 | 1020.3 |
| 20260507180651 | 66 | 115 | 2.0 | 2.0 | 0.00 | 0.00 | 0.00 | 25 | 1020.5 |
| 20260507180148 | 65 | 48 | 1.0 | 1.0 | 0.00 | 0.00 | 0.00 | 25 | 1020.7 |
| 20260507175643 | 64 | 318 | 4.0 | 5.0 | 0.00 | 0.00 | 0.00 | 26 | 1020.5 |
| 20260507175141 | 63 | 47 | 3.0 | 5.0 | 0.00 | 0.00 | 0.00 | 26 | 1020.7 |
| 20260507174638 | 62 | 54 | 4.0 | 5.0 | 0.00 | 0.00 | 0.00 | 27 | 1020.5 |
| 20260507174136 | 63 | 173 | 3.0 | 3.0 | 0.00 | 0.00 | 0.00 | 26 | 1020.8 |
| 20260507173633 | 62 | 8 | 5.0 | 6.0 | 0.00 | 0.00 | 0.00 | 27 | 1020.9 |
| 20260507173129 | 64 | 12 | 2.0 | 5.0 | 0.00 | 0.00 | 0.00 | 26 | 1020.8 |
| 20260507172625 | 62 | 53 | 1.0 | 1.0 | 0.00 | 0.00 | 0.00 | 28 | 1020.8 |
| 20260507172118 | 60 | 25 | 1.0 | 2.0 | 0.00 | 0.00 | 0.00 | 28 | 1021.2 |
| 20260507171613 | 61 | 13 | 3.0 | 3.0 | 0.00 | 0.00 | 0.00 | 28 | 1021.5 |
| 20260507171110 | 60 | 331 | 3.0 | 3.0 | 0.00 | 0.00 | 0.00 | 29 | 1021.6 |
| 20260507170607 | 60 | 123 | 3.0 | 5.0 | 0.00 | 0.00 | 0.00 | 28 | 1021.5 |
| 20260507170104 | 60 | 329 | 1.0 | 1.0 | 0.00 | 0.00 | 0.00 | 29 | 1021.4 |
| 20260507165559 | 61 | 39 | 3.0 | 5.0 | 0.00 | 0.00 | 0.00 | 29 | 1021.5 |
| 20260507165055 | 60 | 14 | 3.0 | 5.0 | 0.00 | 0.00 | 0.00 | 30 | 1021.5 |
| 20260507164547 | 59 | 357 | 4.0 | 5.0 | 0.00 | 0.00 | 0.00 | 31 | 1021.7 |
| 20260507164043 | 59 | 249 | 1.0 | 1.0 | 0.00 | 0.00 | 0.00 | 34 | 1021.5 |
| 20260507163540 | 58 | 55 | 4.0 | 6.0 | 0.00 | 0.00 | 0.00 | 35 | 1021.6 |
| 20260507163038 | 57 | 27 | 3.0 | 3.0 | 0.00 | 0.00 | 0.00 | 35 | 1021.6 |
| 20260507162533 | 58 | 15 | 6.0 | 8.0 | 0.00 | 0.00 | 0.00 | 34 | 1021.7 |
| 20260507162030 | 57 | 275 | 3.0 | 5.0 | 0.00 | 0.00 | 0.00 | 35 | 1021.8 |
| 20260507161526 | 57 | 119 | 3.0 | 5.0 | 0.00 | 0.00 | 0.00 | 35 | 1021.8 |
| 20260507161023 | 56 | 29 | 4.0 | 5.0 | 0.00 | 0.00 | 0.00 | 35 | 1022.1 |
| 20260507160519 | 56 | 47 | 5.0 | 7.0 | 0.00 | 0.00 | 0.00 | 36 | 1021.8 |
| 20260507160016 | 56 | 326 | 6.0 | 9.0 | 0.00 | 0.00 | 0.00 | 37 | 1021.8 |
| 20260507155511 | 56 | 74 | 4.0 | 6.0 | 0.00 | 0.00 | 0.00 | 38 | 1021.9 |
| 20260507155009 | 55 | 82 | 6.0 | 9.0 | 0.00 | 0.00 | 0.00 | 38 | 1021.9 |
| 20260507154505 | 55 | 37 | 9.0 | 10.0 | 0.00 | 0.00 | 0.00 | 38 | 1022.2 |
| 20260507154002 | 55 | 349 | 7.0 | 9.0 | 0.00 | 0.00 | 0.00 | 39 | 1022.2 |
| 20260507153459 | 54 | 65 | 8.0 | 10.0 | 0.00 | 0.00 | 0.00 | 40 | 1022.2 |
| 20260507152955 | 53 | 5 | 9.0 | 11.0 | 0.00 | 0.00 | 0.00 | 41 | 1022.4 |
| 20260507152451 | 53 | 70 | 4.0 | 6.0 | 0.00 | 0.00 | 0.00 | 41 | 1022.2 |
| 20260507151948 | 53 | 298 | 3.0 | 3.0 | 0.00 | 0.00 | 0.00 | 44 | 1022.3 |
| 20260507151444 | 53 | 42 | 3.0 | 3.0 | 0.00 | 0.00 | 0.00 | 45 | 1022.4 |
| 20260507150941 | 52 | 307 | 3.0 | 5.0 | 0.00 | 0.00 | 0.00 | 46 | 1022.2 |
| 20260507150438 | 51 | 17 | 4.0 | 6.0 | 0.00 | 0.00 | 0.00 | 47 | 1022.3 |
| 20260507145934 | 51 | 31 | 4.0 | 6.0 | 0.00 | 0.00 | 0.00 | 47 | 1022.4 |
| 20260507145430 | 51 | 318 | 5.0 | 6.0 | 0.00 | 0.00 | 0.00 | 48 | 1022.7 |
| 20260507144927 | 50 | 16 | 6.0 | 8.0 | 0.00 | 0.00 | 0.00 | 49 | 1022.5 |
| 20260507144424 | 51 | 315 | 3.0 | 5.0 | 0.00 | 0.00 | 0.00 | 50 | 1022.5 |
| 20260507143921 | 51 | 16 | 4.0 | 6.0 | 0.00 | 0.00 | 0.00 | 49 | 1022.5 |
| 20260507143418 | 51 | 27 | 7.0 | 9.0 | 0.00 | 0.00 | 0.00 | 48 | 1022.3 |
| 20260507142915 | 50 | 336 | 5.0 | 6.0 | 0.00 | 0.00 | 0.00 | 49 | 1022.4 |
| 20260507142410 | 50 | 34 | 6.0 | 9.0 | 0.00 | 0.00 | 0.00 | 49 | 1022.3 |
| 20260507141908 | 49 | 292 | 9.0 | 11.0 | 0.00 | 0.00 | 0.00 | 49 | 1022.4 |
| 20260507141404 | 49 | 310 | 4.0 | 6.0 | 0.00 | 0.00 | 0.00 | 50 | 1022.4 |
| 20260507140901 | 48 | 310 | 5.0 | 8.0 | 0.00 | 0.00 | 0.00 | 50 | 1022.5 |
| 20260507140357 | 48 | 275 | 5.0 | 7.0 | 0.00 | 0.00 | 0.00 | 51 | 1022.3 |
| 20260507135855 | 47 | 348 | 9.0 | 13.0 | 0.00 | 0.00 | 0.00 | 52 | 1022.5 |
| 20260507135352 | 47 | 14 | 5.0 | 7.0 | 0.00 | 0.00 | 0.00 | 52 | 1022.8 |
| 20260507134849 | 47 | 1 | 3.0 | 6.0 | 0.00 | 0.00 | 0.00 | 52 | 1022.4 |
| 20260507134345 | 46 | 293 | 8.0 | 11.0 | 0.00 | 0.00 | 0.00 | 53 | 1022.5 |
| 20260507133841 | 46 | 18 | 9.0 | 11.0 | 0.00 | 0.00 | 0.00 | 54 | 1022.4 |
| 20260507133337 | 46 | 18 | 5.0 | 7.0 | 0.00 | 0.00 | 0.00 | 55 | 1022.3 |
| 20260507132836 | 45 | 327 | 10.0 | 15.0 | 0.00 | 0.00 | 0.00 | 56 | 1022.3 |
| 20260507132332 | 45 | 321 | 6.0 | 8.0 | 0.00 | 0.00 | 0.00 | 56 | 1022.2 |
| 20260507131829 | 45 | 46 | 7.0 | 9.0 | 0.00 | 0.00 | 0.00 | 58 | 1022.1 |
| 20260507131325 | 45 | 293 | 6.0 | 7.0 | 0.00 | 0.00 | 0.00 | 60 | 1022.2 |
| 20260507130822 | 45 | 324 | 6.0 | 9.0 | 0.00 | 0.00 | 0.00 | 61 | 1022.3 |
| 20260507130319 | 44 | 313 | 6.0 | 8.0 | 0.00 | 0.00 | 0.00 | 61 | 1022.2 |
| 20260507125819 | 44 | 66 | 5.0 | 7.0 | 0.00 | 0.00 | 0.00 | 61 | 1022.3 |
| 20260507125316 | 44 | 328 | 7.0 | 8.0 | 0.00 | 0.00 | 0.00 | 62 | 1021.9 |
| 20260507124813 | 43 | 10 | 6.0 | 8.0 | 0.00 | 0.00 | 0.00 | 63 | 1022.1 |
| 20260507124309 | 43 | 346 | 9.0 | 10.0 | 0.00 | 0.00 | 0.00 | 64 | 1021.8 |
| 20260507123808 | 43 | 13 | 8.0 | 11.0 | 0.00 | 0.00 | 0.00 | 64 | 1022.1 |
| 20260507123305 | 42 | 283 | 5.0 | 8.0 | 0.00 | 0.00 | 0.00 | 65 | 1021.9 |
| 20260507122801 | 42 | 44 | 7.0 | 8.0 | 0.00 | 0.00 | 0.00 | 65 | 1021.9 |
| 20260507122256 | 42 | 321 | 7.0 | 10.0 | 0.00 | 0.00 | 0.00 | 65 | 1021.8 |
| 20260507121752 | 42 | 293 | 5.0 | 8.0 | 0.00 | 0.00 | 0.00 | 65 | 1021.8 |
| 20260507121248 | 42 | 292 | 7.0 | 10.0 | 0.00 | 0.00 | 0.00 | 65 | 1021.8 |
| 20260507120744 | 42 | 31 | 3.0 | 5.0 | 0.00 | 0.00 | 0.00 | 64 | 1021.8 |
| 20260507120241 | 42 | 333 | 3.0 | 5.0 | 0.00 | 0.00 | 0.00 | 64 | 1022.1 |
| 20260507115737 | 42 | 351 | 6.0 | 11.0 | 0.00 | 0.00 | 0.00 | 63 | 1021.7 |
| 20260507115233 | 42 | 14 | 7.0 | 8.0 | 0.00 | 0.00 | 0.00 | 62 | 1021.7 |
| 20260507114729 | 43 | 43 | 3.0 | 5.0 | 0.00 | 0.00 | 0.00 | 62 | 1021.9 |
| 20260507114227 | 43 | 6 | 3.0 | 3.0 | 0.00 | 0.00 | 0.00 | 61 | 1022.1 |
| 20260507113724 | 43 | 309 | 4.0 | 5.0 | 0.00 | 0.00 | 0.00 | 60 | 1021.8 |
| 20260507113221 | 43 | 339 | 3.0 | 3.0 | 0.00 | 0.00 | 0.00 | 59 | 1022.2 |
| 20260507112718 | 43 | 347 | 4.0 | 5.0 | 0.00 | 0.00 | 0.00 | 58 | 1022.1 |
| 20260507112215 | 42 | 11 | 2.0 | 2.0 | 0.00 | 0.00 | 0.00 | 57 | 1021.9 |
| 20260507111713 | 43 | 27 | 1.0 | 1.0 | 0.00 | 0.00 | 0.00 | 56 | 1022.1 |
| 20260507111210 | 43 | 38 | 1.0 | 1.0 | 0.00 | 0.00 | 0.00 | 55 | 1021.9 |
| 20260507110705 | 43 | 19 | 0.0 | 0.0 | 0.00 | 0.00 | 0.00 | 55 | 1021.9 |
| 20260507110202 | 43 | 20 | 1.0 | 2.0 | 0.00 | 0.00 | 0.00 | 54 | 1021.9 |
| 20260507105659 | 44 | 338 | 2.0 | 3.0 | 0.00 | 0.00 | 0.00 | 52 | 1022.1 |
| 20260507105155 | 44 | 344 | 1.0 | 1.0 | 0.00 | 0.00 | 0.00 | 51 | 1022.1 |
| 20260507104653 | 44 | 15 | 3.0 | 6.0 | 0.00 | 0.00 | 0.00 | 50 | 1021.9 |
| 20260507104149 | 44 | 314 | 3.0 | 3.0 | 0.00 | 0.00 | 0.00 | 48 | 1021.9 |
| 20260507103645 | 45 | 313 | 3.0 | 5.0 | 0.00 | 0.00 | 0.00 | 46 | 1022.2 |
| 20260507103142 | 45 | 332 | 4.0 | 5.0 | 0.00 | 0.00 | 0.00 | 45 | 1021.9 |
| 20260507102638 | 44 | 293 | 3.0 | 5.0 | 0.00 | 0.00 | 0.00 | 45 | 1021.8 |
| 20260507102134 | 45 | 287 | 4.0 | 5.0 | 0.00 | 0.00 | 0.00 | 42 | 1022.1 |
| 20260507101630 | 45 | 340 | 3.0 | 3.0 | 0.00 | 0.00 | 0.00 | 41 | 1021.6 |
| 20260507101126 | 45 | 16 | 5.0 | 7.0 | 0.00 | 0.00 | 0.00 | 40 | 1021.6 |
| 20260507100624 | 45 | 11 | 4.0 | 5.0 | 0.00 | 0.00 | 0.00 | 38 | 1021.6 |
| 20260507100122 | 44 | 335 | 5.0 | 6.0 | 0.00 | 0.00 | 0.00 | 36 | 1021.7 |
| 20260507095620 | 44 | 322 | 5.0 | 7.0 | 0.00 | 0.00 | 0.00 | 37 | 1021.6 |
| 20260507095116 | 45 | 316 | 2.0 | 2.0 | 0.00 | 0.00 | 0.00 | 36 | 1021.9 |
| 20260507094612 | 45 | 357 | 7.0 | 9.0 | 0.00 | 0.00 | 0.00 | 35 | 1021.8 |
| 20260507094109 | 45 | 345 | 4.0 | 5.0 | 0.00 | 0.00 | 0.00 | 34 | 1021.5 |
| 20260507093607 | 45 | 332 | 3.0 | 5.0 | 0.00 | 0.00 | 0.00 | 34 | 1021.7 |
| 20260507093105 | 44 | 329 | 3.0 | 7.0 | 0.00 | 0.00 | 0.00 | 35 | 1021.9 |
| 20260507092601 | 44 | 320 | 3.0 | 5.0 | 0.00 | 0.00 | 0.00 | 35 | 1021.8 |
| 20260507092058 | 45 | 319 | 3.0 | 5.0 | 0.00 | 0.00 | 0.00 | 34 | 1021.7 |
| 20260507091555 | 45 | 358 | 2.0 | 3.0 | 0.00 | 0.00 | 0.00 | 35 | 1021.9 |
| 20260507091051 | 44 | 300 | 1.0 | 2.0 | 0.00 | 0.00 | 0.00 | 35 | 1021.8 |
| 20260507090547 | 45 | 305 | 2.0 | 2.0 | 0.00 | 0.00 | 0.00 | 35 | 1021.9 |
| 20260507090044 | 45 | 298 | 2.0 | 3.0 | 0.00 | 0.00 | 0.00 | 34 | 1021.7 |
| 20260507085541 | 46 | 334 | 1.0 | 1.0 | 0.00 | 0.00 | 0.00 | 34 | 1021.9 |
| 20260507085038 | 46 | 9 | 3.0 | 3.0 | 0.00 | 0.00 | 0.00 | 33 | 1021.6 |
| 20260507084534 | 46 | 289 | 3.0 | 3.0 | 0.00 | 0.00 | 0.00 | 33 | 1021.9 |
| 20260507084031 | 46 | 347 | 3.0 | 3.0 | 0.00 | 0.00 | 0.00 | 34 | 1021.6 |
| 20260507083527 | 47 | 66 | 0.0 | 1.0 | 0.00 | 0.00 | 0.00 | 34 | 1021.8 |
| 20260507083025 | 47 | 59 | 0.0 | 0.0 | 0.00 | 0.00 | 0.00 | 33 | 1021.6 |
| 20260507082521 | 48 | 27 | 0.0 | 0.0 | 0.00 | 0.00 | 0.00 | 32 | 1021.4 |
| 20260507082017 | 50 | 58 | 0.0 | 0.0 | 0.00 | 0.00 | 0.00 | 29 | 1021.1 |
| 20260507081514 | 50 | 219 | 3.0 | 3.0 | 0.00 | 0.00 | 0.00 | 28 | 1021.4 |
| 20260507081011 | 50 | 299 | 4.0 | 6.0 | 0.00 | 0.00 | 0.00 | 28 | 1020.9 |
| 20260507080506 | 50 | 292 | 4.0 | 7.0 | 0.00 | 0.00 | 0.00 | 28 | 1020.9 |
| 20260507080003 | 50 | 289 | 6.0 | 8.0 | 0.00 | 0.00 | 0.00 | 28 | 1020.9 |
| 20260507075458 | 50 | 286 | 5.0 | 7.0 | 0.00 | 0.00 | 0.00 | 28 | 1020.9 |
| 20260507074955 | 51 | 255 | 6.0 | 8.0 | 0.00 | 0.00 | 0.00 | 28 | 1020.9 |
| 20260507074452 | 51 | 327 | 5.0 | 6.0 | 0.00 | 0.00 | 0.00 | 28 | 1021.0 |
| 20260507073950 | 51 | 314 | 4.0 | 6.0 | 0.00 | 0.00 | 0.00 | 27 | 1020.8 |
| 20260507073446 | 52 | 313 | 3.0 | 6.0 | 0.00 | 0.00 | 0.00 | 27 | 1020.9 |
| 20260507072943 | 52 | 317 | 5.0 | 7.0 | 0.00 | 0.00 | 0.00 | 26 | 1020.7 |
| 20260507072440 | 52 | 257 | 6.0 | 10.0 | 0.00 | 0.00 | 0.00 | 27 | 1020.8 |
| 20260507071937 | 52 | 267 | 7.0 | 8.0 | 0.00 | 0.00 | 0.00 | 27 | 1020.8 |
| 20260507071434 | 51 | 330 | 6.0 | 8.0 | 0.00 | 0.00 | 0.00 | 27 | 1020.7 |
| 20260507070931 | 52 | 343 | 5.0 | 7.0 | 0.00 | 0.00 | 0.00 | 27 | 1020.5 |
| 20260507070428 | 51 | 286 | 5.0 | 9.0 | 0.00 | 0.00 | 0.00 | 27 | 1020.8 |
| 20260507065925 | 51 | 319 | 6.0 | 8.0 | 0.00 | 0.00 | 0.00 | 28 | 1021.0 |
| 20260507065421 | 50 | 300 | 2.0 | 2.0 | 0.00 | 0.00 | 0.00 | 29 | 1020.7 |
| 20260507064913 | 51 | 296 | 3.0 | 3.0 | 0.00 | 0.00 | 0.00 | 28 | 1020.8 |
| 20260507064411 | 51 | 333 | 2.0 | 2.0 | 0.00 | 0.00 | 0.00 | 28 | 1020.5 |
| 20260507063909 | 52 | 298 | 3.0 | 3.0 | 0.00 | 0.00 | 0.00 | 28 | 1020.7 |
| 20260507063406 | 52 | 281 | 2.0 | 3.0 | 0.00 | 0.00 | 0.00 | 28 | 1021.0 |
| 20260507062903 | 52 | 299 | 3.0 | 5.0 | 0.00 | 0.00 | 0.00 | 27 | 1020.5 |
| 20260507062359 | 53 | 313 | 4.0 | 6.0 | 0.00 | 0.00 | 0.00 | 27 | 1020.9 |
| 20260507061857 | 53 | 248 | 4.0 | 5.0 | 0.00 | 0.00 | 0.00 | 27 | 1020.8 |
| 20260507061355 | 53 | 267 | 2.0 | 2.0 | 0.00 | 0.00 | 0.00 | 27 | 1020.8 |
| 20260507060853 | 53 | 301 | 5.0 | 7.0 | 0.00 | 0.00 | 0.00 | 26 | 1020.7 |
| 20260507060349 | 53 | 277 | 4.0 | 6.0 | 0.00 | 0.00 | 0.00 | 26 | 1020.5 |
| 20260507055846 | 54 | 263 | 6.0 | 9.0 | 0.00 | 0.00 | 0.00 | 26 | 1020.4 |
| 20260507055341 | 54 | 247 | 3.0 | 5.0 | 0.00 | 0.00 | 0.00 | 26 | 1020.5 |
| 20260507054839 | 55 | 353 | 3.0 | 3.0 | 0.00 | 0.00 | 0.00 | 25 | 1020.5 |
| 20260507054334 | 55 | 261 | 3.0 | 3.0 | 0.00 | 0.00 | 0.00 | 25 | 1020.2 |
| 20260507053832 | 55 | 306 | 8.0 | 10.0 | 0.00 | 0.00 | 0.00 | 24 | 1020.1 |
| 20260507053329 | 55 | 260 | 2.0 | 2.0 | 0.00 | 0.00 | 0.00 | 25 | 1020.1 |
| 20260507052828 | 55 | 303 | 2.0 | 2.0 | 0.00 | 0.00 | 0.00 | 26 | 1020.4 |
| 20260507052324 | 55 | 262 | 5.0 | 8.0 | 0.00 | 0.00 | 0.00 | 26 | 1020.2 |
| 20260507051822 | 55 | 288 | 5.0 | 8.0 | 0.00 | 0.00 | 0.00 | 26 | 1020.3 |
| 20260507051320 | 55 | 295 | 7.0 | 10.0 | 0.00 | 0.00 | 0.00 | 27 | 1020.0 |
| 20260507050816 | 55 | 289 | 5.0 | 7.0 | 0.00 | 0.00 | 0.00 | 27 | 1020.0 |
| 20260507050313 | 55 | 279 | 6.0 | 8.0 | 0.00 | 0.00 | 0.00 | 27 | 1019.8 |
| 20260507045810 | 55 | 331 | 1.0 | 2.0 | 0.00 | 0.00 | 0.00 | 29 | 1020.2 |
| 20260507045307 | 56 | 285 | 3.0 | 6.0 | 0.00 | 0.00 | 0.00 | 30 | 1019.8 |
| 20260507044803 | 56 | 321 | 3.0 | 5.0 | 0.00 | 0.00 | 0.00 | 31 | 1020.0 |
| 20260507044300 | 56 | 314 | 4.0 | 5.0 | 0.00 | 0.00 | 0.00 | 32 | 1019.8 |
| 20260507043756 | 56 | 272 | 5.0 | 6.0 | 0.00 | 0.00 | 0.00 | 33 | 1019.8 |
| 20260507043253 | 56 | 288 | 5.0 | 6.0 | 0.00 | 0.00 | 0.00 | 34 | 1019.7 |
| 20260507042749 | 56 | 309 | 5.0 | 7.0 | 0.00 | 0.00 | 0.00 | 37 | 1019.7 |
| 20260507042244 | 55 | 308 | 4.0 | 8.0 | 0.00 | 0.00 | 0.00 | 37 | 1019.6 |
| 20260507041742 | 54 | 290 | 4.0 | 6.0 | 0.00 | 0.00 | 0.00 | 41 | 1019.6 |
| 20260507041238 | 53 | 271 | 2.0 | 3.0 | 0.00 | 0.00 | 0.00 | 43 | 1019.3 |
| 20260507040735 | 53 | 284 | 2.0 | 2.0 | 0.00 | 0.00 | 0.00 | 44 | 1019.3 |
| 20260507040231 | 53 | 305 | 0.0 | 1.0 | 0.00 | 0.00 | 0.00 | 44 | 1019.4 |
| 20260507035727 | 53 | 258 | 0.0 | 2.0 | 0.00 | 0.00 | 0.00 | 44 | 1019.1 |
| 20260507035223 | 54 | 281 | 0.0 | 0.0 | 0.00 | 0.00 | 0.00 | 43 | 1019.1 |
| 20260507034721 | 55 | 267 | 0.0 | 1.0 | 0.00 | 0.00 | 0.00 | 42 | 1018.9 |
| 20260507034217 | 55 | 276 | 2.0 | 2.0 | 0.00 | 0.00 | 0.00 | 42 | 1018.9 |
| 20260507033716 | 56 | 294 | 2.0 | 2.0 | 0.00 | 0.00 | 0.00 | 41 | 1018.7 |